createdAt,value
2018-05-01T00:00:22.322Z,0.00
2018-05-01T00:02:15.315Z,0.00
2018-05-01T00:03:15.356Z,0.00
2018-05-01T00:05:08.344Z,0.00
2018-05-01T00:06:08.396Z,0.00
2018-05-01T00:08:01.381Z,0.00
2018-05-01T00:09:01.432Z,0.00
2018-05-01T00:10:54.410Z,0.00
2018-05-01T00:11:54.468Z,0.00
2018-05-01T00:13:47.458Z,0.00
2018-05-01T00:14:47.507Z,0.00
2018-05-01T00:16:40.488Z,0.00
2018-05-01T00:17:40.545Z,0.00
2018-05-01T00:19:33.533Z,0.00
2018-05-01T00:20:33.588Z,0.00
2018-05-01T00:22:26.656Z,0.00
2018-05-01T00:23:26.617Z,0.00
2018-05-01T00:25:19.602Z,0.00
2018-05-01T00:26:19.658Z,0.00
2018-05-01T00:28:12.636Z,0.00
2018-05-01T00:29:12.696Z,0.00
2018-05-01T00:31:05.689Z,0.00
2018-05-01T00:32:05.739Z,0.00
2018-05-01T00:33:58.721Z,0.00
2018-05-01T00:34:58.772Z,0.00
2018-05-01T00:36:51.757Z,0.00
2018-05-01T00:37:51.813Z,0.00
2018-05-01T00:39:44.796Z,0.00
2018-05-01T00:40:44.849Z,0.00
2018-05-01T00:42:37.844Z,0.00
2018-05-01T00:43:37.905Z,0.00
2018-05-01T00:45:30.895Z,0.00
2018-05-01T00:46:30.941Z,0.00
2018-05-01T00:48:23.963Z,0.00
2018-05-01T00:49:23.977Z,0.00
2018-05-01T00:51:16.968Z,0.00
2018-05-01T00:52:17.012Z,0.00
2018-05-01T00:54:10.003Z,0.00
2018-05-01T00:55:10.057Z,0.00
2018-05-01T00:57:03.033Z,0.00
2018-05-01T00:58:03.084Z,0.00
2018-05-01T00:59:56.075Z,0.00
2018-05-01T01:00:56.119Z,0.00
2018-05-01T01:02:49.098Z,0.00
2018-05-01T01:03:49.156Z,0.00
2018-05-01T01:05:42.147Z,0.00
2018-05-01T01:06:42.194Z,0.00
2018-05-01T01:08:35.173Z,0.00
2018-05-01T01:09:35.232Z,0.00
2018-05-01T01:11:28.220Z,0.00
2018-05-01T01:12:28.273Z,0.00
2018-05-01T01:14:21.254Z,0.00
2018-05-01T01:15:21.311Z,0.00
2018-05-01T01:17:14.301Z,0.00
2018-05-01T01:18:14.353Z,0.00
2018-05-01T01:20:07.343Z,0.00
2018-05-01T01:21:07.389Z,0.00
2018-05-01T01:23:00.368Z,0.00
2018-05-01T01:24:00.426Z,0.00
2018-05-01T01:25:53.409Z,0.00
2018-05-01T01:26:53.462Z,0.00
2018-05-01T01:28:46.451Z,0.00
2018-05-01T01:29:46.503Z,0.00
2018-05-01T01:31:39.495Z,0.00
2018-05-01T01:32:39.541Z,0.00
2018-05-01T01:34:32.521Z,0.00
2018-05-01T01:35:32.576Z,0.00
2018-05-01T01:37:25.624Z,0.00
2018-05-01T01:38:25.625Z,0.00
2018-05-01T01:40:18.596Z,0.00
2018-05-01T01:41:18.653Z,0.00
2018-05-01T01:43:11.643Z,0.00
2018-05-01T01:44:11.689Z,0.00
2018-05-01T01:46:04.676Z,0.00
2018-05-01T01:47:04.726Z,0.00
2018-05-01T01:48:57.707Z,0.00
2018-05-01T01:49:57.762Z,0.00
2018-05-01T01:51:50.748Z,0.00
2018-05-01T01:52:50.803Z,0.00
2018-05-01T01:54:43.776Z,0.00
2018-05-01T01:55:43.834Z,0.00
2018-05-01T01:57:36.825Z,0.00
2018-05-01T01:58:36.873Z,0.00
2018-05-01T02:00:29.850Z,0.00
2018-05-01T02:01:29.906Z,0.00
2018-05-01T02:03:22.892Z,0.00
2018-05-01T02:04:22.941Z,0.00
2018-05-01T02:06:15.920Z,0.00
2018-05-01T02:07:15.978Z,0.00
2018-05-01T02:09:08.962Z,0.00
2018-05-01T02:10:09.017Z,0.00
2018-05-01T02:12:02.010Z,0.00
2018-05-01T02:13:02.058Z,0.00
2018-05-01T02:14:55.552Z,0.00
2018-05-01T02:15:55.602Z,0.00
2018-05-01T02:17:48.599Z,0.00
2018-05-01T02:18:48.647Z,0.00
2018-05-01T02:20:41.625Z,0.00
2018-05-01T02:21:41.689Z,0.00
2018-05-01T02:23:34.672Z,0.00
2018-05-01T02:24:34.720Z,0.00
2018-05-01T02:26:27.701Z,0.00
2018-05-01T02:27:27.753Z,0.00
2018-05-01T02:29:20.739Z,0.00
2018-05-01T02:30:20.792Z,0.00
2018-05-01T02:32:13.781Z,0.00
2018-05-01T02:33:13.825Z,0.00
2018-05-01T02:35:06.811Z,0.00
2018-05-01T02:36:06.865Z,0.00
2018-05-01T02:37:59.849Z,0.00
2018-05-01T02:38:59.907Z,0.00
2018-05-01T02:40:52.880Z,0.00
2018-05-01T02:41:52.941Z,0.00
2018-05-01T02:43:45.922Z,0.00
2018-05-01T02:44:45.971Z,0.00
2018-05-01T02:46:38.950Z,0.00
2018-05-01T02:47:39.007Z,0.00
2018-05-01T02:49:31.999Z,0.00
2018-05-01T02:50:32.046Z,0.00
2018-05-01T02:52:25.027Z,0.00
2018-05-01T02:53:25.084Z,0.00
2018-05-01T02:55:18.075Z,0.00
2018-05-01T02:56:18.120Z,0.00
2018-05-01T02:58:11.108Z,0.00
2018-05-01T02:59:11.156Z,0.00
2018-05-01T03:01:04.139Z,0.00
2018-05-01T03:02:04.189Z,0.00
2018-05-01T03:03:57.177Z,0.00
2018-05-01T03:04:57.227Z,0.00
2018-05-01T03:06:50.204Z,0.00
2018-05-01T03:07:50.262Z,0.00
2018-05-01T03:09:43.326Z,0.00
2018-05-01T03:10:43.300Z,0.00
2018-05-01T03:12:36.283Z,0.00
2018-05-01T03:13:36.339Z,0.00
2018-05-01T03:15:29.833Z,0.00
2018-05-01T03:16:29.884Z,0.00
2018-05-01T03:18:22.864Z,0.00
2018-05-01T03:19:22.917Z,0.00
2018-05-01T03:21:15.896Z,0.00
2018-05-01T03:22:15.953Z,0.00
2018-05-01T03:24:08.948Z,0.00
2018-05-01T03:25:08.996Z,0.00
2018-05-01T03:27:01.978Z,0.00
2018-05-01T03:28:02.035Z,0.00
2018-05-01T03:29:55.019Z,0.00
2018-05-01T03:30:55.069Z,0.00
2018-05-01T03:32:48.053Z,0.00
2018-05-01T03:33:48.109Z,4.00
2018-05-01T03:35:41.100Z,0.00
2018-05-01T03:36:41.148Z,0.00
2018-05-01T03:38:34.132Z,4.00
2018-05-01T03:39:34.190Z,4.00
2018-05-01T03:41:27.165Z,4.00
2018-05-01T03:42:27.220Z,4.00
2018-05-01T03:44:20.205Z,4.00
2018-05-01T03:45:20.258Z,8.00
2018-05-01T03:47:13.236Z,12.00
2018-05-01T03:48:13.292Z,8.00
2018-05-01T03:50:06.280Z,12.00
2018-05-01T03:51:06.328Z,16.00
2018-05-01T03:52:59.305Z,12.00
2018-05-01T03:53:59.362Z,16.00
2018-05-01T03:55:52.420Z,16.00
2018-05-01T03:56:52.405Z,20.00
2018-05-01T03:58:45.381Z,20.00
2018-05-01T03:59:45.441Z,24.00
2018-05-01T04:01:38.422Z,24.00
2018-05-01T04:02:38.476Z,20.00
2018-05-01T04:04:31.462Z,32.00
2018-05-01T04:05:31.515Z,36.00
2018-05-01T04:07:24.488Z,44.00
2018-05-01T04:08:24.546Z,48.00
2018-05-01T04:10:17.535Z,68.00
2018-05-01T04:11:17.583Z,60.00
2018-05-01T04:13:10.572Z,56.00
2018-05-01T04:14:10.630Z,76.00
2018-05-01T04:16:03.613Z,84.00
2018-05-01T04:17:03.662Z,80.00
2018-05-01T04:18:56.641Z,72.00
2018-05-01T04:19:56.703Z,84.00
2018-05-01T04:21:49.683Z,88.00
2018-05-01T04:22:49.734Z,96.00
2018-05-01T04:24:42.709Z,132.00
2018-05-01T04:25:42.768Z,100.00
2018-05-01T04:27:35.756Z,144.00
2018-05-01T04:28:35.809Z,152.00
2018-05-01T04:30:28.799Z,156.00
2018-05-01T04:31:28.847Z,172.00
2018-05-01T04:33:21.822Z,140.00
2018-05-01T04:34:21.881Z,208.00
2018-05-01T04:36:14.865Z,152.00
2018-05-01T04:37:14.918Z,228.00
2018-05-01T04:39:07.893Z,216.00
2018-05-01T04:40:07.953Z,264.00
2018-05-01T04:42:00.939Z,252.00
2018-05-01T04:43:00.994Z,284.00
2018-05-01T04:44:53.969Z,240.00
2018-05-01T04:45:54.027Z,336.00
2018-05-01T04:47:47.017Z,388.00
2018-05-01T04:48:47.067Z,308.00
2018-05-01T04:50:40.046Z,352.00
2018-05-01T04:51:40.176Z,312.00
2018-05-01T04:53:33.087Z,428.00
2018-05-01T04:54:33.137Z,580.00
2018-05-01T04:56:26.125Z,520.00
2018-05-01T04:57:26.219Z,584.00
2018-05-01T04:59:19.154Z,504.00
2018-05-01T05:00:19.226Z,532.00
2018-05-01T05:02:12.697Z,472.00
2018-05-01T05:03:12.748Z,492.00
2018-05-01T05:05:05.727Z,792.00
2018-05-01T05:06:05.783Z,656.00
2018-05-01T05:07:58.770Z,636.00
2018-05-01T05:08:58.818Z,804.00
2018-05-01T05:10:51.808Z,944.00
2018-05-01T05:11:51.855Z,1248.00
2018-05-01T05:13:44.872Z,1288.00
2018-05-01T05:14:44.892Z,1296.00
2018-05-01T05:16:37.893Z,1280.00
2018-05-01T05:17:37.948Z,1128.00
2018-05-01T05:19:30.936Z,888.00
2018-05-01T05:20:30.994Z,1056.00
2018-05-01T05:22:23.987Z,944.00
2018-05-01T05:23:24.030Z,964.00
2018-05-01T05:25:17.010Z,1352.00
2018-05-01T05:26:17.069Z,1564.00
2018-05-01T05:28:10.057Z,724.00
2018-05-01T05:29:10.107Z,800.00
2018-05-01T05:31:03.084Z,804.00
2018-05-01T05:32:03.138Z,980.00
2018-05-01T05:33:56.125Z,864.00
2018-05-01T05:34:56.176Z,872.00
2018-05-01T05:36:49.179Z,916.00
2018-05-01T05:37:49.219Z,864.00
2018-05-01T05:39:42.204Z,872.00
2018-05-01T05:40:42.258Z,872.00
2018-05-01T05:42:35.253Z,792.00
2018-05-01T05:43:35.303Z,772.00
2018-05-01T05:45:28.277Z,856.00
2018-05-01T05:46:28.337Z,844.00
2018-05-01T05:48:21.324Z,596.00
2018-05-01T05:49:21.377Z,696.00
2018-05-01T05:51:14.351Z,692.00
2018-05-01T05:52:14.405Z,644.00
2018-05-01T05:54:07.388Z,548.00
2018-05-01T05:55:07.442Z,692.00
2018-05-01T05:57:00.421Z,836.00
2018-05-01T05:58:00.476Z,692.00
2018-05-01T05:59:53.463Z,1036.00
2018-05-01T06:00:53.513Z,800.00
2018-05-01T06:02:46.499Z,648.00
2018-05-01T06:03:46.548Z,1084.00
2018-05-01T06:05:39.531Z,1068.00
2018-05-01T06:06:39.586Z,812.00
2018-05-01T06:08:32.573Z,832.00
2018-05-01T06:09:32.625Z,748.00
2018-05-01T06:11:25.608Z,820.00
2018-05-01T06:12:25.660Z,684.00
2018-05-01T06:14:18.644Z,896.00
2018-05-01T06:15:18.696Z,852.00
2018-05-01T06:17:11.674Z,672.00
2018-05-01T06:18:11.729Z,620.00
2018-05-01T06:20:04.728Z,656.00
2018-05-01T06:21:04.779Z,728.00
2018-05-01T06:22:57.754Z,656.00
2018-05-01T06:23:57.814Z,932.00
2018-05-01T06:25:50.811Z,800.00
2018-05-01T06:26:50.852Z,940.00
2018-05-01T06:28:43.845Z,1272.00
2018-05-01T06:29:43.892Z,1384.00
2018-05-01T06:31:36.877Z,1424.00
2018-05-01T06:32:36.934Z,1256.00
2018-05-01T06:34:29.917Z,1732.00
2018-05-01T06:35:29.970Z,1488.00
2018-05-01T06:37:22.967Z,2456.00
2018-05-01T06:38:23.012Z,1992.00
2018-05-01T06:40:16.001Z,2528.00
2018-05-01T06:41:16.053Z,2208.00
2018-05-01T06:43:09.029Z,2032.00
2018-05-01T06:44:09.095Z,2412.00
2018-05-01T06:46:02.071Z,2152.00
2018-05-01T06:47:02.119Z,1848.00
2018-05-01T06:48:55.101Z,1856.00
2018-05-01T06:49:55.158Z,1312.00
2018-05-01T06:51:48.147Z,1228.00
2018-05-01T06:52:48.194Z,1164.00
2018-05-01T06:54:41.197Z,1468.00
2018-05-01T06:55:41.237Z,1364.00
2018-05-01T06:57:34.220Z,1256.00
2018-05-01T06:58:34.283Z,1684.00
2018-05-01T07:00:27.257Z,1576.00
2018-05-01T07:01:27.309Z,1500.00
2018-05-01T07:03:20.290Z,1252.00
2018-05-01T07:04:20.424Z,1172.00
2018-05-01T07:06:13.366Z,1224.00
2018-05-01T07:07:13.387Z,2108.00
2018-05-01T07:09:06.364Z,1248.00
2018-05-01T07:10:06.472Z,1368.00
2018-05-01T07:11:59.413Z,1452.00
2018-05-01T07:12:59.464Z,1668.00
2018-05-01T07:14:52.440Z,1324.00
2018-05-01T07:15:52.531Z,2128.00
2018-05-01T07:17:45.514Z,1480.00
2018-05-01T07:18:45.535Z,1476.00
2018-05-01T07:20:38.525Z,2176.00
2018-05-01T07:21:38.579Z,1596.00
2018-05-01T07:23:31.554Z,1808.00
2018-05-01T07:24:31.609Z,1736.00
2018-05-01T07:26:24.604Z,1952.00
2018-05-01T07:27:24.680Z,1832.00
2018-05-01T07:29:17.628Z,2024.00
2018-05-01T07:30:17.697Z,1768.00
2018-05-01T07:32:10.675Z,1612.00
2018-05-01T07:33:10.722Z,1956.00
2018-05-01T07:35:03.703Z,1780.00
2018-05-01T07:36:03.758Z,1728.00
2018-05-01T07:37:56.756Z,2140.00
2018-05-01T07:38:56.796Z,2220.00
2018-05-01T07:40:49.786Z,3124.00
2018-05-01T07:41:49.839Z,3836.00
2018-05-01T07:43:42.822Z,4740.00
2018-05-01T07:44:42.876Z,4628.00
2018-05-01T07:46:35.860Z,2916.00
2018-05-01T07:47:35.911Z,3904.00
2018-05-01T07:49:28.889Z,5128.00
2018-05-01T07:50:28.947Z,4012.00
2018-05-01T07:52:21.936Z,3472.00
2018-05-01T07:53:21.990Z,4612.00
2018-05-01T07:55:14.967Z,2484.00
2018-05-01T07:56:15.026Z,3332.00
2018-05-01T07:58:08.029Z,2568.00
2018-05-01T07:59:08.072Z,2276.00
2018-05-01T08:01:01.045Z,2680.00
2018-05-01T08:02:01.105Z,2900.00
2018-05-01T08:03:54.601Z,3036.00
2018-05-01T08:04:54.649Z,3588.00
2018-05-01T08:06:47.639Z,2968.00
2018-05-01T08:07:47.687Z,3500.00
2018-05-01T08:09:40.671Z,2936.00
2018-05-01T08:10:40.724Z,2824.00
2018-05-01T08:12:33.709Z,2948.00
2018-05-01T08:13:33.819Z,3152.00
2018-05-01T08:15:26.740Z,3752.00
2018-05-01T08:16:26.798Z,3800.00
2018-05-01T08:18:19.789Z,3872.00
2018-05-01T08:19:19.840Z,4024.00
2018-05-01T08:21:12.820Z,6060.00
2018-05-01T08:22:12.878Z,6036.00
2018-05-01T08:24:05.870Z,7244.00
2018-05-01T08:25:05.918Z,6556.00
2018-05-01T08:26:58.900Z,7204.00
2018-05-01T08:27:58.956Z,8056.00
2018-05-01T08:29:51.946Z,8440.00
2018-05-01T08:30:51.994Z,8952.00
2018-05-01T08:32:44.987Z,10520.00
2018-05-01T08:33:45.033Z,13208.00
2018-05-01T08:35:38.011Z,14264.00
2018-05-01T08:36:38.069Z,12796.00
2018-05-01T08:38:31.062Z,9432.00
2018-05-01T08:39:31.109Z,10768.00
2018-05-01T08:41:24.090Z,8464.00
2018-05-01T08:42:24.152Z,12184.00
2018-05-01T08:44:17.143Z,22496.00
2018-05-01T08:45:17.275Z,18304.00
2018-05-01T08:47:10.182Z,26336.00
2018-05-01T08:48:10.241Z,28256.00
2018-05-01T08:50:03.234Z,22272.00
2018-05-01T08:51:03.283Z,18784.00
2018-05-01T08:52:56.261Z,14944.00
2018-05-01T08:53:56.326Z,14412.00
2018-05-01T08:55:49.318Z,13316.00
2018-05-01T08:56:49.365Z,12860.00
2018-05-01T08:58:42.358Z,12472.00
2018-05-01T08:59:42.409Z,12640.00
2018-05-01T09:01:35.393Z,13864.00
2018-05-01T09:02:35.451Z,14100.00
2018-05-01T09:04:29.950Z,14636.00
2018-05-01T09:05:30.001Z,14024.00
2018-05-01T09:07:22.984Z,11804.00
2018-05-01T09:08:23.043Z,10312.00
2018-05-01T09:10:16.035Z,10044.00
2018-05-01T09:11:16.085Z,13748.00
2018-05-01T09:13:09.070Z,16736.00
2018-05-01T09:14:09.128Z,17504.00
2018-05-01T09:16:02.120Z,17184.00
2018-05-01T09:17:02.203Z,12988.00
2018-05-01T09:18:55.160Z,15340.00
2018-05-01T09:19:55.210Z,15452.00
2018-05-01T09:21:48.196Z,12840.00
2018-05-01T09:22:48.255Z,14400.00
2018-05-01T09:24:41.241Z,12072.00
2018-05-01T09:25:41.296Z,16608.00
2018-05-01T09:27:34.281Z,13932.00
2018-05-01T09:28:34.335Z,12556.00
2018-05-01T09:30:27.324Z,9208.00
2018-05-01T09:31:27.379Z,10484.00
2018-05-01T09:33:20.368Z,9112.00
2018-05-01T09:34:20.425Z,13256.00
2018-05-01T09:36:13.416Z,18656.00
2018-05-01T09:37:13.470Z,15456.00
2018-05-01T09:39:06.464Z,24224.00
2018-05-01T09:40:06.521Z,21760.00
2018-05-01T09:41:59.620Z,20128.00
2018-05-01T09:42:59.566Z,15128.00
2018-05-01T09:44:52.557Z,13892.00
2018-05-01T09:45:52.606Z,11904.00
2018-05-01T09:47:45.591Z,19744.00
2018-05-01T09:48:45.651Z,20960.00
2018-05-01T09:50:38.644Z,19200.00
2018-05-01T09:51:38.693Z,20544.00
2018-05-01T09:53:31.680Z,17152.00
2018-05-01T09:54:31.741Z,21472.00
2018-05-01T09:56:24.737Z,11452.00
2018-05-01T09:57:24.794Z,14744.00
2018-05-01T09:59:17.800Z,13044.00
2018-05-01T10:00:17.879Z,17568.00
2018-05-01T10:02:10.842Z,17792.00
2018-05-01T10:03:10.939Z,17024.00
2018-05-01T10:05:03.896Z,17792.00
2018-05-01T10:06:03.949Z,18208.00
2018-05-01T10:07:56.934Z,16896.00
2018-05-01T10:08:56.996Z,21088.00
2018-05-01T10:10:49.988Z,22240.00
2018-05-01T10:11:50.048Z,20960.00
2018-05-01T10:13:43.031Z,17120.00
2018-05-01T10:14:43.093Z,17216.00
2018-05-01T10:16:36.093Z,17344.00
2018-05-01T10:17:36.134Z,18816.00
2018-05-01T10:19:29.127Z,20128.00
2018-05-01T10:20:29.185Z,21472.00
2018-05-01T10:22:22.169Z,18304.00
2018-05-01T10:23:22.228Z,18784.00
2018-05-01T10:25:15.217Z,17600.00
2018-05-01T10:26:15.271Z,18048.00
2018-05-01T10:28:08.257Z,23040.00
2018-05-01T10:29:08.317Z,22048.00
2018-05-01T10:31:01.309Z,19072.00
2018-05-01T10:32:01.368Z,18944.00
2018-05-01T10:33:54.358Z,18176.00
2018-05-01T10:34:54.414Z,16512.00
2018-05-01T10:36:47.401Z,13664.00
2018-05-01T10:37:47.459Z,14584.00
2018-05-01T10:39:40.452Z,13880.00
2018-05-01T10:40:40.512Z,11784.00
2018-05-01T10:42:33.496Z,11072.00
2018-05-01T10:43:33.557Z,11560.00
2018-05-01T10:45:26.546Z,9960.00
2018-05-01T10:46:26.602Z,11416.00
2018-05-01T10:48:19.587Z,8920.00
2018-05-01T10:49:19.666Z,11156.00
2018-05-01T10:51:12.642Z,8964.00
2018-05-01T10:52:12.691Z,7808.00
2018-05-01T10:54:05.676Z,8072.00
2018-05-01T10:55:05.738Z,7368.00
2018-05-01T10:56:58.731Z,9952.00
2018-05-01T10:57:58.988Z,14144.00
2018-05-01T10:59:51.781Z,17920.00
2018-05-01T11:00:51.839Z,21696.00
2018-05-01T11:02:44.820Z,17184.00
2018-05-01T11:03:44.883Z,21792.00
2018-05-01T11:05:37.888Z,23744.00
2018-05-01T11:06:37.938Z,23680.00
2018-05-01T11:08:30.924Z,21856.00
2018-05-01T11:09:30.982Z,18976.00
2018-05-01T11:11:23.973Z,17568.00
2018-05-01T11:12:24.029Z,17984.00
2018-05-01T11:14:17.008Z,17344.00
2018-05-01T11:15:17.076Z,17120.00
2018-05-01T11:17:10.068Z,15392.00
2018-05-01T11:18:10.120Z,12908.00
2018-05-01T11:20:03.116Z,16672.00
2018-05-01T11:21:03.167Z,17184.00
2018-05-01T11:22:56.163Z,18112.00
2018-05-01T11:23:56.220Z,17440.00
2018-05-01T11:25:49.231Z,16180.00
2018-05-01T11:26:49.272Z,15536.00
2018-05-01T11:28:42.257Z,17088.00
2018-05-01T11:29:42.320Z,17696.00
2018-05-01T11:31:35.318Z,15828.00
2018-05-01T11:32:35.370Z,15644.00
2018-05-01T11:34:28.366Z,15264.00
2018-05-01T11:35:28.422Z,13236.00
2018-05-01T11:37:21.422Z,12040.00
2018-05-01T11:38:21.481Z,13252.00
2018-05-01T11:40:14.988Z,13056.00
2018-05-01T11:41:15.038Z,12860.00
2018-05-01T11:43:08.029Z,13332.00
2018-05-01T11:44:08.088Z,13068.00
2018-05-01T11:46:01.080Z,14380.00
2018-05-01T11:47:01.137Z,14548.00
2018-05-01T11:48:54.124Z,14708.00
2018-05-01T11:49:54.183Z,14796.00
2018-05-01T11:51:47.178Z,13240.00
2018-05-01T11:52:47.232Z,12800.00
2018-05-01T11:54:40.220Z,12612.00
2018-05-01T11:55:40.277Z,12696.00
2018-05-01T11:57:33.275Z,12268.00
2018-05-01T11:58:33.494Z,12272.00
2018-05-01T12:00:26.325Z,11592.00
2018-05-01T12:01:26.379Z,12328.00
2018-05-01T12:03:19.367Z,12088.00
2018-05-01T12:04:19.430Z,11184.00
2018-05-01T12:06:12.422Z,10856.00
2018-05-01T12:07:12.483Z,10932.00
2018-05-01T12:09:05.470Z,11316.00
2018-05-01T12:10:05.533Z,11668.00
2018-05-01T12:11:58.529Z,12188.00
2018-05-01T12:12:58.586Z,12900.00
2018-05-01T12:14:51.579Z,13484.00
2018-05-01T12:15:51.638Z,13320.00
2018-05-01T12:17:44.653Z,13212.00
2018-05-01T12:18:44.711Z,13124.00
2018-05-01T12:20:37.716Z,12988.00
2018-05-01T12:21:37.761Z,13004.00
2018-05-01T12:23:30.762Z,12776.00
2018-05-01T12:24:30.816Z,12812.00
2018-05-01T12:26:23.849Z,13128.00
2018-05-01T12:27:23.884Z,13244.00
2018-05-01T12:29:16.868Z,13316.00
2018-05-01T12:30:16.926Z,13148.00
2018-05-01T12:32:09.927Z,12412.00
2018-05-01T12:33:09.983Z,12068.00
2018-05-01T12:35:02.992Z,11544.00
2018-05-01T12:36:03.056Z,11448.00
2018-05-01T12:37:56.051Z,11172.00
2018-05-01T12:38:56.102Z,11008.00
2018-05-01T12:40:49.606Z,10864.00
2018-05-01T12:41:49.658Z,10768.00
2018-05-01T12:43:42.648Z,10724.00
2018-05-01T12:44:42.708Z,10668.00
2018-05-01T12:46:35.712Z,10792.00
2018-05-01T12:47:35.764Z,10628.00
2018-05-01T12:49:28.749Z,10588.00
2018-05-01T12:50:28.831Z,10596.00
2018-05-01T12:52:21.805Z,10496.00
2018-05-01T12:53:21.860Z,10472.00
2018-05-01T12:55:14.849Z,10420.00
2018-05-01T12:56:14.910Z,10508.00
2018-05-01T12:58:07.906Z,10260.00
2018-05-01T12:59:07.965Z,10188.00
2018-05-01T13:01:00.950Z,10108.00
2018-05-01T13:02:01.006Z,10112.00
2018-05-01T13:03:53.997Z,10152.00
2018-05-01T13:04:54.060Z,10160.00
2018-05-01T13:06:47.055Z,10176.00
2018-05-01T13:07:47.109Z,10196.00
2018-05-01T13:09:40.097Z,10232.00
2018-05-01T13:10:40.157Z,10228.00
2018-05-01T13:12:33.170Z,10256.00
2018-05-01T13:13:33.208Z,10408.00
2018-05-01T13:15:26.198Z,10252.00
2018-05-01T13:16:26.260Z,10216.00
2018-05-01T13:18:19.252Z,10156.00
2018-05-01T13:19:19.308Z,10076.00
2018-05-01T13:21:12.304Z,9944.00
2018-05-01T13:22:12.358Z,9828.00
2018-05-01T13:24:05.345Z,9776.00
2018-05-01T13:25:05.406Z,9612.00
2018-05-01T13:26:58.402Z,9536.00
2018-05-01T13:27:58.457Z,9536.00
2018-05-01T13:29:51.454Z,9424.00
2018-05-01T13:30:51.511Z,9408.00
2018-05-01T13:32:44.514Z,9412.00
2018-05-01T13:33:44.564Z,9404.00
2018-05-01T13:35:37.557Z,9460.00
2018-05-01T13:36:37.640Z,9456.00
2018-05-01T13:38:30.613Z,9352.00
2018-05-01T13:39:30.670Z,9340.00
2018-05-01T13:41:23.669Z,9312.00
2018-05-01T13:42:23.725Z,9328.00
2018-05-01T13:44:16.713Z,9440.00
2018-05-01T13:45:16.841Z,9608.00
2018-05-01T13:47:09.767Z,9552.00
2018-05-01T13:48:09.823Z,9580.00
2018-05-01T13:50:02.816Z,9620.00
2018-05-01T13:51:02.873Z,9632.00
2018-05-01T13:52:55.870Z,9684.00
2018-05-01T13:53:55.950Z,9724.00
2018-05-01T13:55:48.920Z,9776.00
2018-05-01T13:56:48.981Z,9792.00
2018-05-01T13:58:41.976Z,9836.00
2018-05-01T13:59:42.034Z,9856.00
2018-05-01T14:01:35.024Z,9880.00
2018-05-01T14:02:35.078Z,9876.00
2018-05-01T14:04:28.084Z,9860.00
2018-05-01T14:05:28.127Z,9844.00
2018-05-01T14:07:21.127Z,9820.00
2018-05-01T14:08:21.182Z,9800.00
2018-05-01T14:10:14.168Z,9756.00
2018-05-01T14:11:14.234Z,9724.00
2018-05-01T14:13:07.238Z,9688.00
2018-05-01T14:14:07.300Z,9696.00
2018-05-01T14:16:00.784Z,9660.00
2018-05-01T14:17:00.838Z,9556.00
2018-05-01T14:18:53.835Z,9468.00
2018-05-01T14:19:53.903Z,9396.00
2018-05-01T14:21:46.882Z,9232.00
2018-05-01T14:22:46.935Z,9156.00
2018-05-01T14:24:39.926Z,8924.00
2018-05-01T14:25:40.055Z,8836.00
2018-05-01T14:27:32.984Z,9364.00
2018-05-01T14:28:33.046Z,9324.00
2018-05-01T14:30:26.020Z,8648.00
2018-05-01T14:31:26.080Z,8504.00
2018-05-01T14:33:19.154Z,8336.00
2018-05-01T14:34:19.137Z,8368.00
2018-05-01T14:36:12.133Z,8132.00
2018-05-01T14:37:12.194Z,8172.00
2018-05-01T14:39:05.196Z,7988.00
2018-05-01T14:40:05.246Z,7764.00
2018-05-01T14:41:58.341Z,7608.00
2018-05-01T14:42:58.307Z,7496.00
2018-05-01T14:44:51.294Z,7396.00
2018-05-01T14:45:51.355Z,7632.00
2018-05-01T14:47:44.353Z,7532.00
2018-05-01T14:48:44.408Z,7544.00
2018-05-01T14:50:37.402Z,7272.00
2018-05-01T14:51:37.461Z,7240.00
2018-05-01T14:53:30.455Z,6816.00
2018-05-01T14:54:30.511Z,6700.00
2018-05-01T14:56:23.501Z,6516.00
2018-05-01T14:57:23.571Z,6448.00
2018-05-01T14:59:16.563Z,6296.00
2018-05-01T15:00:16.617Z,6248.00
2018-05-01T15:02:09.611Z,6092.00
2018-05-01T15:03:09.669Z,5932.00
2018-05-01T15:05:02.654Z,6056.00
2018-05-01T15:06:02.715Z,5992.00
2018-05-01T15:07:55.707Z,5708.00
2018-05-01T15:08:55.815Z,5696.00
2018-05-01T15:10:48.754Z,5672.00
2018-05-01T15:11:48.814Z,5824.00
2018-05-01T15:13:41.811Z,5724.00
2018-05-01T15:14:41.863Z,5320.00
2018-05-01T15:16:35.361Z,4952.00
2018-05-01T15:17:35.420Z,4980.00
2018-05-01T15:19:28.432Z,4888.00
2018-05-01T15:20:28.465Z,5108.00
2018-05-01T15:22:21.460Z,6664.00
2018-05-01T15:23:21.515Z,5840.00
2018-05-01T15:25:14.501Z,4876.00
2018-05-01T15:26:14.562Z,4700.00
2018-05-01T15:28:07.556Z,4592.00
2018-05-01T15:29:07.612Z,4600.00
2018-05-01T15:31:00.600Z,4728.00
2018-05-01T15:32:00.659Z,5040.00
2018-05-01T15:33:53.661Z,5060.00
2018-05-01T15:34:53.717Z,5128.00
2018-05-01T15:36:46.717Z,5280.00
2018-05-01T15:37:46.774Z,4716.00
2018-05-01T15:39:39.774Z,3988.00
2018-05-01T15:40:39.831Z,3880.00
2018-05-01T15:42:32.828Z,3972.00
2018-05-01T15:43:32.881Z,3984.00
2018-05-01T15:45:25.877Z,4972.00
2018-05-01T15:46:25.929Z,4588.00
2018-05-01T15:48:18.925Z,3780.00
2018-05-01T15:49:18.976Z,3632.00
2018-05-01T15:51:11.967Z,4156.00
2018-05-01T15:52:12.027Z,4608.00
2018-05-01T15:54:05.024Z,4356.00
2018-05-01T15:55:05.079Z,4080.00
2018-05-01T15:56:58.071Z,4228.00
2018-05-01T15:57:58.129Z,4004.00
2018-05-01T15:59:51.127Z,3416.00
2018-05-01T16:00:51.179Z,3368.00
2018-05-01T16:02:44.171Z,3512.00
2018-05-01T16:03:44.232Z,3500.00
2018-05-01T16:05:37.213Z,3228.00
2018-05-01T16:06:37.279Z,3228.00
2018-05-01T16:08:30.270Z,3028.00
2018-05-01T16:09:30.322Z,3000.00
2018-05-01T16:11:23.306Z,3168.00
2018-05-01T16:12:23.368Z,3216.00
2018-05-01T16:14:16.416Z,3040.00
2018-05-01T16:15:16.421Z,3108.00
2018-05-01T16:17:09.409Z,3260.00
2018-05-01T16:18:09.470Z,3200.00
2018-05-01T16:20:02.468Z,3164.00
2018-05-01T16:21:02.522Z,3164.00
2018-05-01T16:22:55.518Z,3164.00
2018-05-01T16:23:55.613Z,3116.00
2018-05-01T16:25:48.601Z,3096.00
2018-05-01T16:26:48.630Z,3084.00
2018-05-01T16:28:41.622Z,3060.00
2018-05-01T16:29:41.676Z,3040.00
2018-05-01T16:31:34.667Z,2988.00
2018-05-01T16:32:34.723Z,2964.00
2018-05-01T16:34:27.719Z,2916.00
2018-05-01T16:35:27.778Z,2880.00
2018-05-01T16:37:20.757Z,2816.00
2018-05-01T16:38:20.818Z,2796.00
2018-05-01T16:40:13.849Z,2748.00
2018-05-01T16:41:13.863Z,2716.00
2018-05-01T16:43:06.859Z,2672.00
2018-05-01T16:44:06.911Z,2644.00
2018-05-01T16:45:59.898Z,2596.00
2018-05-01T16:46:59.960Z,2572.00
2018-05-01T16:48:52.955Z,2516.00
2018-05-01T16:49:53.006Z,2480.00
2018-05-01T16:51:46.003Z,2400.00
2018-05-01T16:52:46.067Z,2360.00
2018-05-01T16:54:39.065Z,2304.00
2018-05-01T16:55:39.120Z,2272.00
2018-05-01T16:57:32.117Z,2220.00
2018-05-01T16:58:32.476Z,2204.00
2018-05-01T17:00:25.192Z,2144.00
2018-05-01T17:01:25.223Z,2108.00
2018-05-01T17:03:18.210Z,2048.00
2018-05-01T17:04:18.449Z,2024.00
2018-05-01T17:06:11.254Z,1988.00
2018-05-01T17:07:11.312Z,1960.00
2018-05-01T17:09:04.309Z,1920.00
2018-05-01T17:10:04.368Z,1896.00
2018-05-01T17:11:57.353Z,1860.00
2018-05-01T17:12:57.494Z,1844.00
2018-05-01T17:14:50.410Z,1796.00
2018-05-01T17:15:50.472Z,1772.00
2018-05-01T17:17:43.462Z,1708.00
2018-05-01T17:18:43.513Z,1680.00
2018-05-01T17:20:36.505Z,1632.00
2018-05-01T17:21:36.565Z,1612.00
2018-05-01T17:23:29.557Z,1580.00
2018-05-01T17:24:29.609Z,1568.00
2018-05-01T17:26:22.591Z,1548.00
2018-05-01T17:27:22.659Z,1536.00
2018-05-01T17:29:15.663Z,1504.00
2018-05-01T17:30:15.698Z,1496.00
2018-05-01T17:32:08.691Z,1472.00
2018-05-01T17:33:08.750Z,1456.00
2018-05-01T17:35:02.257Z,1424.00
2018-05-01T17:36:02.301Z,1420.00
2018-05-01T17:37:55.294Z,1408.00
2018-05-01T17:38:55.352Z,1404.00
2018-05-01T17:40:48.390Z,1376.00
2018-05-01T17:41:48.394Z,1360.00
2018-05-01T17:43:41.385Z,1348.00
2018-05-01T17:44:41.438Z,1340.00